sensor_id;sensor_type;location;lat;lon;timestamp;temperature;humidity
19622;DHT22;9958;33.196;-97.114;2022-12-20T00:01:08;9.30;99.90
19622;DHT22;9958;33.196;-97.114;2022-12-20T00:03:38;9.30;99.90
19622;DHT22;9958;33.196;-97.114;2022-12-20T00:06:06;9.30;99.90
19622;DHT22;9958;33.196;-97.114;2022-12-20T00:08:37;9.30;99.90
19622;DHT22;9958;33.196;-97.114;2022-12-20T00:11:06;9.30;99.90
19622;DHT22;9958;33.196;-97.114;2022-12-20T00:13:35;9.30;99.90
19622;DHT22;9958;33.196;-97.114;2022-12-20T00:16:08;9.20;99.90
19622;DHT22;9958;33.196;-97.114;2022-12-20T00:18:39;9.20;99.90
19622;DHT22;9958;33.196;-97.114;2022-12-20T00:21:09;9.20;99.90
19622;DHT22;9958;33.196;-97.114;2022-12-20T00:23:38;9.30;99.90
19622;DHT22;9958;33.196;-97.114;2022-12-20T00:26:08;9.30;99.90
19622;DHT22;9958;33.196;-97.114;2022-12-20T00:28:37;9.30;99.90
19622;DHT22;9958;33.196;-97.114;2022-12-20T00:31:07;9.20;99.90
19622;DHT22;9958;33.196;-97.114;2022-12-20T00:33:38;9.30;99.90
19622;DHT22;9958;33.196;-97.114;2022-12-20T00:36:07;9.30;99.90
19622;DHT22;9958;33.196;-97.114;2022-12-20T00:38:35;9.30;99.90
19622;DHT22;9958;33.196;-97.114;2022-12-20T00:41:05;9.20;99.90
19622;DHT22;9958;33.196;-97.114;2022-12-20T00:43:35;9.20;99.90
19622;DHT22;9958;33.196;-97.114;2022-12-20T00:46:04;9.20;99.90
19622;DHT22;9958;33.196;-97.114;2022-12-20T00:48:32;9.20;99.90
19622;DHT22;9958;33.196;-97.114;2022-12-20T00:51:05;9.20;99.90
19622;DHT22;9958;33.196;-97.114;2022-12-20T00:53:34;9.20;99.90
19622;DHT22;9958;33.196;-97.114;2022-12-20T00:56:03;9.20;99.90
19622;DHT22;9958;33.196;-97.114;2022-12-20T00:58:32;9.20;99.90
19622;DHT22;9958;33.196;-97.114;2022-12-20T01:01:01;9.20;99.90
19622;DHT22;9958;33.196;-97.114;2022-12-20T01:03:29;9.20;99.90
19622;DHT22;9958;33.196;-97.114;2022-12-20T01:05:59;9.20;99.90
19622;DHT22;9958;33.196;-97.114;2022-12-20T01:08:30;9.20;99.90
19622;DHT22;9958;33.196;-97.114;2022-12-20T01:10:59;9.20;99.90
19622;DHT22;9958;33.196;-97.114;2022-12-20T01:13:28;9.10;99.90
19622;DHT22;9958;33.196;-97.114;2022-12-20T01:15:57;9.10;99.90
19622;DHT22;9958;33.196;-97.114;2022-12-20T01:18:30;9.10;99.90
19622;DHT22;9958;33.196;-97.114;2022-12-20T01:21:02;9.10;99.90
19622;DHT22;9958;33.196;-97.114;2022-12-20T01:23:32;9.10;99.90
19622;DHT22;9958;33.196;-97.114;2022-12-20T01:26:01;9.10;99.90
19622;DHT22;9958;33.196;-97.114;2022-12-20T01:28:31;9.10;99.90
19622;DHT22;9958;33.196;-97.114;2022-12-20T01:30:59;9.10;99.90
19622;DHT22;9958;33.196;-97.114;2022-12-20T01:33:27;9.10;99.90
19622;DHT22;9958;33.196;-97.114;2022-12-20T01:35:56;9.10;99.90
19622;DHT22;9958;33.196;-97.114;2022-12-20T01:38:25;9.10;99.90
19622;DHT22;9958;33.196;-97.114;2022-12-20T01:40:56;9.10;99.90
19622;DHT22;9958;33.196;-97.114;2022-12-20T01:43:25;9.10;99.90
19622;DHT22;9958;33.196;-97.114;2022-12-20T01:46:11;9.00;99.90
19622;DHT22;9958;33.196;-97.114;2022-12-20T01:48:40;9.00;99.90
19622;DHT22;9958;33.196;-97.114;2022-12-20T01:51:09;9.00;99.90
19622;DHT22;9958;33.196;-97.114;2022-12-20T01:53:38;9.00;99.90
19622;DHT22;9958;33.196;-97.114;2022-12-20T01:56:08;9.00;99.90
19622;DHT22;9958;33.196;-97.114;2022-12-20T01:58:38;9.00;99.90
19622;DHT22;9958;33.196;-97.114;2022-12-20T02:01:06;9.10;99.90
19622;DHT22;9958;33.196;-97.114;2022-12-20T02:03:35;9.10;99.90
19622;DHT22;9958;33.196;-97.114;2022-12-20T02:06:22;9.00;99.90
19622;DHT22;9958;33.196;-97.114;2022-12-20T02:08:51;9.00;99.90
19622;DHT22;9958;33.196;-97.114;2022-12-20T02:11:47;9.00;99.90
19622;DHT22;9958;33.196;-97.114;2022-12-20T02:14:30;9.00;99.90
19622;DHT22;9958;33.196;-97.114;2022-12-20T02:17:03;9.00;99.90
19622;DHT22;9958;33.196;-97.114;2022-12-20T02:20:02;9.00;99.90
19622;DHT22;9958;33.196;-97.114;2022-12-20T02:22:44;9.00;99.90
19622;DHT22;9958;33.196;-97.114;2022-12-20T02:28:25;9.00;99.90
19622;DHT22;9958;33.196;-97.114;2022-12-20T02:31:03;9.00;99.90
19622;DHT22;9958;33.196;-97.114;2022-12-20T02:33:32;8.90;99.90
19622;DHT22;9958;33.196;-97.114;2022-12-20T02:36:02;8.90;99.90
19622;DHT22;9958;33.196;-97.114;2022-12-20T02:38:32;8.90;99.90
19622;DHT22;9958;33.196;-97.114;2022-12-20T02:41:04;8.90;99.90
19622;DHT22;9958;33.196;-97.114;2022-12-20T02:43:35;8.90;99.90
19622;DHT22;9958;33.196;-97.114;2022-12-20T02:46:25;8.90;99.90
19622;DHT22;9958;33.196;-97.114;2022-12-20T02:48:56;8.90;99.90
19622;DHT22;9958;33.196;-97.114;2022-12-20T02:51:26;8.90;99.90
19622;DHT22;9958;33.196;-97.114;2022-12-20T02:53:57;8.90;99.90
19622;DHT22;9958;33.196;-97.114;2022-12-20T02:56:29;8.90;99.90
19622;DHT22;9958;33.196;-97.114;2022-12-20T02:59:05;8.90;99.90
19622;DHT22;9958;33.196;-97.114;2022-12-20T03:01:38;8.90;99.90
19622;DHT22;9958;33.196;-97.114;2022-12-20T03:04:07;8.90;99.90
19622;DHT22;9958;33.196;-97.114;2022-12-20T03:06:36;8.90;99.90
19622;DHT22;9958;33.196;-97.114;2022-12-20T03:09:04;8.90;99.90
19622;DHT22;9958;33.196;-97.114;2022-12-20T03:11:32;8.90;99.90
19622;DHT22;9958;33.196;-97.114;2022-12-20T03:14:01;8.90;99.90
19622;DHT22;9958;33.196;-97.114;2022-12-20T03:16:29;8.90;99.90
19622;DHT22;9958;33.196;-97.114;2022-12-20T03:18:59;8.90;99.90
19622;DHT22;9958;33.196;-97.114;2022-12-20T03:21:27;8.90;99.90
19622;DHT22;9958;33.196;-97.114;2022-12-20T03:23:55;8.90;99.90
19622;DHT22;9958;33.196;-97.114;2022-12-20T03:26:24;8.90;99.90
19622;DHT22;9958;33.196;-97.114;2022-12-20T03:28:52;8.90;99.90
19622;DHT22;9958;33.196;-97.114;2022-12-20T03:31:20;9.00;99.90
19622;DHT22;9958;33.196;-97.114;2022-12-20T03:33:49;8.90;99.90
19622;DHT22;9958;33.196;-97.114;2022-12-20T03:36:19;8.90;99.90
19622;DHT22;9958;33.196;-97.114;2022-12-20T03:38:49;8.90;99.90
19622;DHT22;9958;33.196;-97.114;2022-12-20T03:41:18;8.90;99.90
19622;DHT22;9958;33.196;-97.114;2022-12-20T03:43:47;8.90;99.90
19622;DHT22;9958;33.196;-97.114;2022-12-20T03:46:16;8.90;99.90
19622;DHT22;9958;33.196;-97.114;2022-12-20T03:48:44;8.90;99.90
19622;DHT22;9958;33.196;-97.114;2022-12-20T03:51:12;8.90;99.90
19622;DHT22;9958;33.196;-97.114;2022-12-20T03:53:42;8.90;99.90
19622;DHT22;9958;33.196;-97.114;2022-12-20T03:56:11;8.80;99.90
19622;DHT22;9958;33.196;-97.114;2022-12-20T03:58:39;8.80;99.90
19622;DHT22;9958;33.196;-97.114;2022-12-20T04:01:17;8.80;99.90
19622;DHT22;9958;33.196;-97.114;2022-12-20T04:03:45;8.70;99.90
19622;DHT22;9958;33.196;-97.114;2022-12-20T04:06:14;8.70;99.90
19622;DHT22;9958;33.196;-97.114;2022-12-20T04:08:44;8.70;99.90
19622;DHT22;9958;33.196;-97.114;2022-12-20T04:11:13;8.70;99.90
19622;DHT22;9958;33.196;-97.114;2022-12-20T04:13:45;8.70;99.90
19622;DHT22;9958;33.196;-97.114;2022-12-20T04:16:15;8.60;99.90
19622;DHT22;9958;33.196;-97.114;2022-12-20T04:18:43;8.60;99.90
19622;DHT22;9958;33.196;-97.114;2022-12-20T04:21:12;8.60;99.90
19622;DHT22;9958;33.196;-97.114;2022-12-20T04:23:43;8.60;99.90
19622;DHT22;9958;33.196;-97.114;2022-12-20T04:26:11;8.60;99.90
19622;DHT22;9958;33.196;-97.114;2022-12-20T04:28:40;8.50;99.90
19622;DHT22;9958;33.196;-97.114;2022-12-20T04:31:08;8.50;99.90
19622;DHT22;9958;33.196;-97.114;2022-12-20T04:33:37;8.40;99.90
19622;DHT22;9958;33.196;-97.114;2022-12-20T04:36:07;8.40;99.90
19622;DHT22;9958;33.196;-97.114;2022-12-20T04:38:35;8.30;99.90
19622;DHT22;9958;33.196;-97.114;2022-12-20T04:41:05;8.30;99.90
19622;DHT22;9958;33.196;-97.114;2022-12-20T04:43:33;8.30;99.90
19622;DHT22;9958;33.196;-97.114;2022-12-20T04:46:02;8.30;99.90
19622;DHT22;9958;33.196;-97.114;2022-12-20T04:48:30;8.30;99.90
19622;DHT22;9958;33.196;-97.114;2022-12-20T04:50:58;8.20;99.90
19622;DHT22;9958;33.196;-97.114;2022-12-20T04:53:27;8.20;99.90
19622;DHT22;9958;33.196;-97.114;2022-12-20T04:56:14;8.20;99.90
19622;DHT22;9958;33.196;-97.114;2022-12-20T04:58:44;8.20;99.90
19622;DHT22;9958;33.196;-97.114;2022-12-20T05:01:12;8.10;99.90
19622;DHT22;9958;33.196;-97.114;2022-12-20T05:03:41;8.00;99.90
19622;DHT22;9958;33.196;-97.114;2022-12-20T05:06:09;8.00;99.90
19622;DHT22;9958;33.196;-97.114;2022-12-20T05:08:38;8.00;99.90
19622;DHT22;9958;33.196;-97.114;2022-12-20T05:11:07;8.00;99.90
19622;DHT22;9958;33.196;-97.114;2022-12-20T05:13:37;8.00;99.90
19622;DHT22;9958;33.196;-97.114;2022-12-20T05:16:05;8.00;99.90
19622;DHT22;9958;33.196;-97.114;2022-12-20T05:18:34;8.00;99.90
19622;DHT22;9958;33.196;-97.114;2022-12-20T05:21:02;7.90;99.90
19622;DHT22;9958;33.196;-97.114;2022-12-20T05:23:48;7.90;99.90
19622;DHT22;9958;33.196;-97.114;2022-12-20T05:26:35;7.90;99.90
19622;DHT22;9958;33.196;-97.114;2022-12-20T05:29:05;7.80;99.90
19622;DHT22;9958;33.196;-97.114;2022-12-20T05:31:33;7.80;99.90
19622;DHT22;9958;33.196;-97.114;2022-12-20T05:34:02;7.70;99.90
19622;DHT22;9958;33.196;-97.114;2022-12-20T05:36:30;7.70;99.90
19622;DHT22;9958;33.196;-97.114;2022-12-20T05:38:58;7.60;99.90
19622;DHT22;9958;33.196;-97.114;2022-12-20T05:41:27;7.60;99.90
19622;DHT22;9958;33.196;-97.114;2022-12-20T05:43:55;7.60;99.90
19622;DHT22;9958;33.196;-97.114;2022-12-20T05:46:25;7.60;99.90
19622;DHT22;9958;33.196;-97.114;2022-12-20T05:48:53;7.60;99.90
19622;DHT22;9958;33.196;-97.114;2022-12-20T05:51:21;7.50;99.90
19622;DHT22;9958;33.196;-97.114;2022-12-20T05:53:50;7.50;99.90
19622;DHT22;9958;33.196;-97.114;2022-12-20T05:56:18;7.50;99.90
19622;DHT22;9958;33.196;-97.114;2022-12-20T05:58:46;7.60;99.90
19622;DHT22;9958;33.196;-97.114;2022-12-20T06:01:15;7.60;99.90
19622;DHT22;9958;33.196;-97.114;2022-12-20T06:03:45;7.50;99.90
19622;DHT22;9958;33.196;-97.114;2022-12-20T06:06:13;7.60;99.90
19622;DHT22;9958;33.196;-97.114;2022-12-20T06:08:41;7.50;99.90
19622;DHT22;9958;33.196;-97.114;2022-12-20T06:11:10;7.50;99.90
19622;DHT22;9958;33.196;-97.114;2022-12-20T06:13:38;7.50;99.90
19622;DHT22;9958;33.196;-97.114;2022-12-20T06:16:07;7.50;99.90
19622;DHT22;9958;33.196;-97.114;2022-12-20T06:18:36;7.50;99.90
19622;DHT22;9958;33.196;-97.114;2022-12-20T06:21:05;7.40;99.90
19622;DHT22;9958;33.196;-97.114;2022-12-20T06:23:34;7.40;99.90
19622;DHT22;9958;33.196;-97.114;2022-12-20T06:26:02;7.40;99.90
19622;DHT22;9958;33.196;-97.114;2022-12-20T06:28:31;7.40;99.90
19622;DHT22;9958;33.196;-97.114;2022-12-20T06:30:59;7.40;99.90
19622;DHT22;9958;33.196;-97.114;2022-12-20T06:33:27;7.50;99.90
19622;DHT22;9958;33.196;-97.114;2022-12-20T06:35:56;7.50;99.90
19622;DHT22;9958;33.196;-97.114;2022-12-20T06:38:25;7.50;99.90
19622;DHT22;9958;33.196;-97.114;2022-12-20T06:40:54;7.50;99.90
19622;DHT22;9958;33.196;-97.114;2022-12-20T06:43:22;7.50;99.90
19622;DHT22;9958;33.196;-97.114;2022-12-20T06:45:50;7.50;99.90
19622;DHT22;9958;33.196;-97.114;2022-12-20T06:48:19;7.60;99.90
19622;DHT22;9958;33.196;-97.114;2022-12-20T06:50:48;7.50;99.90
19622;DHT22;9958;33.196;-97.114;2022-12-20T06:53:16;7.50;99.90
19622;DHT22;9958;33.196;-97.114;2022-12-20T06:55:48;7.50;99.90
19622;DHT22;9958;33.196;-97.114;2022-12-20T06:58:16;7.50;99.90
19622;DHT22;9958;33.196;-97.114;2022-12-20T07:00:45;7.50;99.90
19622;DHT22;9958;33.196;-97.114;2022-12-20T07:03:13;7.50;99.90
19622;DHT22;9958;33.196;-97.114;2022-12-20T07:05:42;7.50;99.90
19622;DHT22;9958;33.196;-97.114;2022-12-20T07:08:10;7.50;99.90
19622;DHT22;9958;33.196;-97.114;2022-12-20T07:10:38;7.50;99.90
19622;DHT22;9958;33.196;-97.114;2022-12-20T07:13:08;7.40;99.90
19622;DHT22;9958;33.196;-97.114;2022-12-20T07:15:36;7.40;99.90
19622;DHT22;9958;33.196;-97.114;2022-12-20T07:18:05;7.40;99.90
19622;DHT22;9958;33.196;-97.114;2022-12-20T07:20:33;7.40;99.90
19622;DHT22;9958;33.196;-97.114;2022-12-20T07:23:02;7.50;99.90
19622;DHT22;9958;33.196;-97.114;2022-12-20T07:25:30;7.50;99.90
19622;DHT22;9958;33.196;-97.114;2022-12-20T07:27:59;7.50;99.90
19622;DHT22;9958;33.196;-97.114;2022-12-20T07:30:29;7.50;99.90
19622;DHT22;9958;33.196;-97.114;2022-12-20T07:32:57;7.50;99.90
19622;DHT22;9958;33.196;-97.114;2022-12-20T07:35:25;7.40;99.90
19622;DHT22;9958;33.196;-97.114;2022-12-20T07:37:53;7.50;99.90
19622;DHT22;9958;33.196;-97.114;2022-12-20T07:40:22;7.40;99.90
19622;DHT22;9958;33.196;-97.114;2022-12-20T07:42:50;7.40;99.90
19622;DHT22;9958;33.196;-97.114;2022-12-20T07:45:18;7.40;99.90
19622;DHT22;9958;33.196;-97.114;2022-12-20T07:47:48;7.30;99.90
19622;DHT22;9958;33.196;-97.114;2022-12-20T07:50:17;7.30;99.90
19622;DHT22;9958;33.196;-97.114;2022-12-20T07:52:46;7.20;99.90
19622;DHT22;9958;33.196;-97.114;2022-12-20T07:55:16;7.20;99.90
19622;DHT22;9958;33.196;-97.114;2022-12-20T07:57:46;7.20;99.90
19622;DHT22;9958;33.196;-97.114;2022-12-20T08:00:17;7.10;99.90
19622;DHT22;9958;33.196;-97.114;2022-12-20T08:02:51;7.10;99.90
19622;DHT22;9958;33.196;-97.114;2022-12-20T08:05:20;7.10;99.90
19622;DHT22;9958;33.196;-97.114;2022-12-20T08:07:50;7.10;99.90
19622;DHT22;9958;33.196;-97.114;2022-12-20T08:10:19;7.10;99.90
19622;DHT22;9958;33.196;-97.114;2022-12-20T08:12:48;7.10;99.90
19622;DHT22;9958;33.196;-97.114;2022-12-20T08:15:16;7.00;99.90
19622;DHT22;9958;33.196;-97.114;2022-12-20T08:17:47;7.00;99.90
19622;DHT22;9958;33.196;-97.114;2022-12-20T08:20:17;7.00;99.90
19622;DHT22;9958;33.196;-97.114;2022-12-20T08:22:46;7.00;99.90
19622;DHT22;9958;33.196;-97.114;2022-12-20T08:25:14;7.10;99.90
19622;DHT22;9958;33.196;-97.114;2022-12-20T08:27:42;7.10;99.90
19622;DHT22;9958;33.196;-97.114;2022-12-20T08:30:12;7.10;99.90
19622;DHT22;9958;33.196;-97.114;2022-12-20T08:32:40;7.10;99.90
19622;DHT22;9958;33.196;-97.114;2022-12-20T08:35:09;7.10;99.90
19622;DHT22;9958;33.196;-97.114;2022-12-20T08:37:39;7.10;99.90
19622;DHT22;9958;33.196;-97.114;2022-12-20T08:40:09;7.00;99.90
19622;DHT22;9958;33.196;-97.114;2022-12-20T08:42:37;7.10;99.90
19622;DHT22;9958;33.196;-97.114;2022-12-20T08:45:06;7.00;99.90
19622;DHT22;9958;33.196;-97.114;2022-12-20T08:47:34;7.10;99.90
19622;DHT22;9958;33.196;-97.114;2022-12-20T08:50:03;7.00;99.90
19622;DHT22;9958;33.196;-97.114;2022-12-20T08:52:32;7.00;99.90
19622;DHT22;9958;33.196;-97.114;2022-12-20T08:55:01;7.00;99.90
19622;DHT22;9958;33.196;-97.114;2022-12-20T08:57:30;7.00;99.90
19622;DHT22;9958;33.196;-97.114;2022-12-20T08:59:59;7.10;99.90
19622;DHT22;9958;33.196;-97.114;2022-12-20T09:02:28;7.00;99.90
19622;DHT22;9958;33.196;-97.114;2022-12-20T09:04:57;7.10;99.90
19622;DHT22;9958;33.196;-97.114;2022-12-20T09:07:25;7.10;99.90
19622;DHT22;9958;33.196;-97.114;2022-12-20T09:09:53;7.10;99.90
19622;DHT22;9958;33.196;-97.114;2022-12-20T09:12:23;7.00;99.90
19622;DHT22;9958;33.196;-97.114;2022-12-20T09:14:51;7.00;99.90
19622;DHT22;9958;33.196;-97.114;2022-12-20T09:17:20;7.10;99.90
19622;DHT22;9958;33.196;-97.114;2022-12-20T09:19:48;7.10;99.90
19622;DHT22;9958;33.196;-97.114;2022-12-20T09:22:17;7.10;99.90
19622;DHT22;9958;33.196;-97.114;2022-12-20T09:24:45;7.00;99.90
19622;DHT22;9958;33.196;-97.114;2022-12-20T09:27:13;7.10;99.90
19622;DHT22;9958;33.196;-97.114;2022-12-20T09:29:43;7.10;99.90
19622;DHT22;9958;33.196;-97.114;2022-12-20T09:32:11;7.10;99.90
19622;DHT22;9958;33.196;-97.114;2022-12-20T09:34:40;7.10;99.90
19622;DHT22;9958;33.196;-97.114;2022-12-20T09:37:08;7.10;99.90
19622;DHT22;9958;33.196;-97.114;2022-12-20T09:39:37;7.10;99.90
19622;DHT22;9958;33.196;-97.114;2022-12-20T09:42:07;7.10;99.90
19622;DHT22;9958;33.196;-97.114;2022-12-20T09:44:39;7.20;99.90
19622;DHT22;9958;33.196;-97.114;2022-12-20T09:47:12;7.10;99.90
19622;DHT22;9958;33.196;-97.114;2022-12-20T09:49:45;7.20;99.90
19622;DHT22;9958;33.196;-97.114;2022-12-20T09:52:32;7.20;99.90
19622;DHT22;9958;33.196;-97.114;2022-12-20T09:55:12;7.20;99.90
19622;DHT22;9958;33.196;-97.114;2022-12-20T09:57:55;7.20;99.90
19622;DHT22;9958;33.196;-97.114;2022-12-20T10:00:25;7.20;99.90
19622;DHT22;9958;33.196;-97.114;2022-12-20T10:02:55;7.20;99.90
19622;DHT22;9958;33.196;-97.114;2022-12-20T10:05:31;7.20;99.90
19622;DHT22;9958;33.196;-97.114;2022-12-20T10:08:06;7.20;99.90
19622;DHT22;9958;33.196;-97.114;2022-12-20T10:10:50;7.20;99.90
19622;DHT22;9958;33.196;-97.114;2022-12-20T10:13:28;7.20;99.90
19622;DHT22;9958;33.196;-97.114;2022-12-20T10:16:14;7.30;99.90
19622;DHT22;9958;33.196;-97.114;2022-12-20T10:18:55;7.20;99.90
19622;DHT22;9958;33.196;-97.114;2022-12-20T10:21:29;7.30;99.90
19622;DHT22;9958;33.196;-97.114;2022-12-20T10:24:02;7.30;99.90
19622;DHT22;9958;33.196;-97.114;2022-12-20T10:26:32;7.30;99.90
19622;DHT22;9958;33.196;-97.114;2022-12-20T10:29:01;7.30;99.90
19622;DHT22;9958;33.196;-97.114;2022-12-20T10:31:29;7.30;99.90
19622;DHT22;9958;33.196;-97.114;2022-12-20T10:33:59;7.30;99.90
19622;DHT22;9958;33.196;-97.114;2022-12-20T10:36:28;7.30;99.90
19622;DHT22;9958;33.196;-97.114;2022-12-20T10:38:58;7.30;99.90
19622;DHT22;9958;33.196;-97.114;2022-12-20T10:41:28;7.30;99.90
19622;DHT22;9958;33.196;-97.114;2022-12-20T10:44:00;7.20;99.90
19622;DHT22;9958;33.196;-97.114;2022-12-20T10:46:37;7.20;99.90
19622;DHT22;9958;33.196;-97.114;2022-12-20T10:49:38;7.10;99.90
19622;DHT22;9958;33.196;-97.114;2022-12-20T10:52:12;7.10;99.90
19622;DHT22;9958;33.196;-97.114;2022-12-20T10:54:43;7.20;99.90
19622;DHT22;9958;33.196;-97.114;2022-12-20T10:57:19;7.20;99.90
19622;DHT22;9958;33.196;-97.114;2022-12-20T10:59:49;7.20;99.90
19622;DHT22;9958;33.196;-97.114;2022-12-20T11:02:27;7.20;99.90
19622;DHT22;9958;33.196;-97.114;2022-12-20T11:05:00;7.20;99.90
19622;DHT22;9958;33.196;-97.114;2022-12-20T11:07:31;7.20;99.90
19622;DHT22;9958;33.196;-97.114;2022-12-20T11:10:08;7.20;99.90
19622;DHT22;9958;33.196;-97.114;2022-12-20T11:12:52;7.20;99.90
19622;DHT22;9958;33.196;-97.114;2022-12-20T11:15:22;7.20;99.90
19622;DHT22;9958;33.196;-97.114;2022-12-20T11:17:53;7.20;99.90
19622;DHT22;9958;33.196;-97.114;2022-12-20T11:20:34;7.20;99.90
19622;DHT22;9958;33.196;-97.114;2022-12-20T11:23:15;7.20;99.90
19622;DHT22;9958;33.196;-97.114;2022-12-20T11:25:55;7.20;99.90
19622;DHT22;9958;33.196;-97.114;2022-12-20T11:28:39;7.20;99.90
19622;DHT22;9958;33.196;-97.114;2022-12-20T11:31:18;7.20;99.90
19622;DHT22;9958;33.196;-97.114;2022-12-20T11:33:57;7.20;99.90
19622;DHT22;9958;33.196;-97.114;2022-12-20T11:36:38;7.10;99.90
19622;DHT22;9958;33.196;-97.114;2022-12-20T11:39:18;7.10;99.90
19622;DHT22;9958;33.196;-97.114;2022-12-20T11:41:56;7.10;99.90
19622;DHT22;9958;33.196;-97.114;2022-12-20T11:44:35;7.10;99.90
19622;DHT22;9958;33.196;-97.114;2022-12-20T11:47:21;7.00;99.90
19622;DHT22;9958;33.196;-97.114;2022-12-20T11:50:06;7.00;99.90
19622;DHT22;9958;33.196;-97.114;2022-12-20T11:52:46;7.00;99.90
19622;DHT22;9958;33.196;-97.114;2022-12-20T11:55:19;7.00;99.90
19622;DHT22;9958;33.196;-97.114;2022-12-20T11:57:58;7.00;99.90
19622;DHT22;9958;33.196;-97.114;2022-12-20T12:00:28;7.00;99.90
19622;DHT22;9958;33.196;-97.114;2022-12-20T12:03:02;7.00;99.90
19622;DHT22;9958;33.196;-97.114;2022-12-20T12:05:40;7.00;99.90
19622;DHT22;9958;33.196;-97.114;2022-12-20T12:08:15;6.90;99.90
19622;DHT22;9958;33.196;-97.114;2022-12-20T12:10:52;7.00;99.90
19622;DHT22;9958;33.196;-97.114;2022-12-20T12:13:25;6.90;99.90
19622;DHT22;9958;33.196;-97.114;2022-12-20T12:15:57;6.90;99.90
19622;DHT22;9958;33.196;-97.114;2022-12-20T12:18:29;7.00;99.90
19622;DHT22;9958;33.196;-97.114;2022-12-20T12:21:03;7.00;99.90
19622;DHT22;9958;33.196;-97.114;2022-12-20T12:23:39;6.90;99.90
19622;DHT22;9958;33.196;-97.114;2022-12-20T12:26:12;6.90;99.90
19622;DHT22;9958;33.196;-97.114;2022-12-20T12:28:42;6.90;99.90
19622;DHT22;9958;33.196;-97.114;2022-12-20T12:31:14;6.90;99.90
19622;DHT22;9958;33.196;-97.114;2022-12-20T12:33:47;6.90;99.90
19622;DHT22;9958;33.196;-97.114;2022-12-20T12:36:39;6.90;99.90
19622;DHT22;9958;33.196;-97.114;2022-12-20T12:39:23;6.90;99.90
19622;DHT22;9958;33.196;-97.114;2022-12-20T12:42:25;6.90;99.90
19622;DHT22;9958;33.196;-97.114;2022-12-20T12:44:58;6.80;99.90
19622;DHT22;9958;33.196;-97.114;2022-12-20T12:47:35;6.90;99.90
19622;DHT22;9958;33.196;-97.114;2022-12-20T12:50:09;6.80;99.90
19622;DHT22;9958;33.196;-97.114;2022-12-20T12:52:48;6.80;99.90
19622;DHT22;9958;33.196;-97.114;2022-12-20T12:55:39;6.80;99.90
19622;DHT22;9958;33.196;-97.114;2022-12-20T13:01:09;6.80;99.90
19622;DHT22;9958;33.196;-97.114;2022-12-20T13:03:41;6.80;99.90
19622;DHT22;9958;33.196;-97.114;2022-12-20T13:06:41;6.90;99.90
19622;DHT22;9958;33.196;-97.114;2022-12-20T13:09:19;6.80;99.90
19622;DHT22;9958;33.196;-97.114;2022-12-20T13:11:49;6.80;99.90
19622;DHT22;9958;33.196;-97.114;2022-12-20T13:14:48;6.80;99.90
19622;DHT22;9958;33.196;-97.114;2022-12-20T13:17:46;6.80;99.90
19622;DHT22;9958;33.196;-97.114;2022-12-20T13:20:18;6.80;99.90
19622;DHT22;9958;33.196;-97.114;2022-12-20T13:23:14;6.70;99.90
19622;DHT22;9958;33.196;-97.114;2022-12-20T13:25:45;6.70;99.90
19622;DHT22;9958;33.196;-97.114;2022-12-20T13:28:46;6.80;99.90
19622;DHT22;9958;33.196;-97.114;2022-12-20T13:31:31;6.70;99.90
19622;DHT22;9958;33.196;-97.114;2022-12-20T13:34:21;6.70;99.90
19622;DHT22;9958;33.196;-97.114;2022-12-20T13:36:58;6.70;99.90
19622;DHT22;9958;33.196;-97.114;2022-12-20T13:39:31;6.70;99.90
19622;DHT22;9958;33.196;-97.114;2022-12-20T13:42:15;6.60;99.90
19622;DHT22;9958;33.196;-97.114;2022-12-20T13:44:48;6.60;99.90
19622;DHT22;9958;33.196;-97.114;2022-12-20T13:47:33;6.60;99.90
19622;DHT22;9958;33.196;-97.114;2022-12-20T13:50:29;6.60;99.90
19622;DHT22;9958;33.196;-97.114;2022-12-20T13:53:01;6.60;99.90
19622;DHT22;9958;33.196;-97.114;2022-12-20T13:55:39;6.60;99.90
19622;DHT22;9958;33.196;-97.114;2022-12-20T13:58:17;6.60;99.90
19622;DHT22;9958;33.196;-97.114;2022-12-20T14:00:48;6.60;99.90
19622;DHT22;9958;33.196;-97.114;2022-12-20T14:03:24;6.70;99.90
19622;DHT22;9958;33.196;-97.114;2022-12-20T14:05:57;6.70;99.90
19622;DHT22;9958;33.196;-97.114;2022-12-20T14:08:28;6.70;99.90
19622;DHT22;9958;33.196;-97.114;2022-12-20T14:11:07;6.70;99.90
19622;DHT22;9958;33.196;-97.114;2022-12-20T14:13:36;6.70;99.90
19622;DHT22;9958;33.196;-97.114;2022-12-20T14:16:12;6.80;99.90
19622;DHT22;9958;33.196;-97.114;2022-12-20T14:18:45;6.80;99.90
19622;DHT22;9958;33.196;-97.114;2022-12-20T14:21:15;6.90;99.90
19622;DHT22;9958;33.196;-97.114;2022-12-20T14:23:45;6.90;99.90
19622;DHT22;9958;33.196;-97.114;2022-12-20T14:26:15;6.90;99.90
19622;DHT22;9958;33.196;-97.114;2022-12-20T14:28:47;6.90;99.90
19622;DHT22;9958;33.196;-97.114;2022-12-20T14:31:36;7.00;99.90
19622;DHT22;9958;33.196;-97.114;2022-12-20T14:34:13;7.00;99.90
19622;DHT22;9958;33.196;-97.114;2022-12-20T14:36:45;7.10;99.90
19622;DHT22;9958;33.196;-97.114;2022-12-20T14:39:24;7.10;99.90
19622;DHT22;9958;33.196;-97.114;2022-12-20T14:41:56;7.10;99.90
19622;DHT22;9958;33.196;-97.114;2022-12-20T14:44:27;7.10;99.90
19622;DHT22;9958;33.196;-97.114;2022-12-20T14:46:58;7.10;99.90
19622;DHT22;9958;33.196;-97.114;2022-12-20T14:49:27;7.20;99.90
19622;DHT22;9958;33.196;-97.114;2022-12-20T14:52:10;7.30;99.90
19622;DHT22;9958;33.196;-97.114;2022-12-20T14:54:43;7.40;99.90
19622;DHT22;9958;33.196;-97.114;2022-12-20T14:57:21;7.50;99.90
19622;DHT22;9958;33.196;-97.114;2022-12-20T15:00:00;7.50;99.90
19622;DHT22;9958;33.196;-97.114;2022-12-20T15:02:40;7.60;99.90
19622;DHT22;9958;33.196;-97.114;2022-12-20T15:08:21;7.60;99.90
19622;DHT22;9958;33.196;-97.114;2022-12-20T15:11:00;7.70;99.90
19622;DHT22;9958;33.196;-97.114;2022-12-20T15:13:33;7.80;99.90
19622;DHT22;9958;33.196;-97.114;2022-12-20T15:16:03;7.90;99.90
19622;DHT22;9958;33.196;-97.114;2022-12-20T15:18:34;7.80;99.90
19622;DHT22;9958;33.196;-97.114;2022-12-20T15:21:09;7.80;99.90
19622;DHT22;9958;33.196;-97.114;2022-12-20T15:23:42;7.90;99.90
19622;DHT22;9958;33.196;-97.114;2022-12-20T15:26:14;8.00;99.90
19622;DHT22;9958;33.196;-97.114;2022-12-20T15:28:43;8.10;99.90
19622;DHT22;9958;33.196;-97.114;2022-12-20T15:31:11;8.10;99.90
19622;DHT22;9958;33.196;-97.114;2022-12-20T15:33:43;8.10;99.90
19622;DHT22;9958;33.196;-97.114;2022-12-20T15:36:15;8.20;99.90
19622;DHT22;9958;33.196;-97.114;2022-12-20T15:38:43;8.20;99.90
19622;DHT22;9958;33.196;-97.114;2022-12-20T15:41:16;8.20;99.90
19622;DHT22;9958;33.196;-97.114;2022-12-20T15:43:46;8.20;99.90
19622;DHT22;9958;33.196;-97.114;2022-12-20T15:46:14;8.30;99.90
19622;DHT22;9958;33.196;-97.114;2022-12-20T15:48:44;8.30;99.90
19622;DHT22;9958;33.196;-97.114;2022-12-20T15:51:16;8.30;99.90
19622;DHT22;9958;33.196;-97.114;2022-12-20T15:53:45;8.30;99.90
19622;DHT22;9958;33.196;-97.114;2022-12-20T15:56:18;8.40;99.90
19622;DHT22;9958;33.196;-97.114;2022-12-20T15:58:47;8.50;99.90
19622;DHT22;9958;33.196;-97.114;2022-12-20T16:01:19;8.60;99.90
19622;DHT22;9958;33.196;-97.114;2022-12-20T16:03:49;8.60;99.90
19622;DHT22;9958;33.196;-97.114;2022-12-20T16:06:18;8.70;99.90
19622;DHT22;9958;33.196;-97.114;2022-12-20T16:08:46;8.80;99.90
19622;DHT22;9958;33.196;-97.114;2022-12-20T16:11:19;8.80;99.90